createdAt,value
2023-11-01T00:01:17.897Z,2.40
2023-11-01T00:06:20.409Z,2.50
2023-11-01T00:11:23.057Z,2.40
2023-11-01T00:16:25.594Z,2.27
2023-11-01T00:21:28.127Z,2.33
2023-11-01T00:26:30.898Z,2.63
2023-11-01T00:31:33.713Z,2.77
2023-11-01T00:36:36.549Z,2.43
2023-11-01T00:41:39.060Z,2.10
2023-11-01T00:46:41.739Z,2.93
2023-11-01T00:51:44.300Z,2.10
2023-11-01T00:56:46.796Z,1.60
2023-11-01T01:01:49.378Z,1.37
2023-11-01T01:06:51.908Z,1.63
2023-11-01T01:11:54.513Z,1.50
2023-11-01T01:16:57.158Z,2.07
2023-11-01T01:21:59.716Z,1.83
2023-11-01T01:27:03.064Z,1.53
2023-11-01T01:32:05.906Z,1.30
2023-11-01T01:37:08.419Z,1.00
2023-11-01T01:42:11.081Z,1.03
2023-11-01T01:47:13.960Z,1.20
2023-11-01T01:52:16.769Z,1.20
2023-11-01T01:57:26.274Z,1.23
2023-11-01T02:02:28.902Z,0.90
2023-11-01T02:07:31.445Z,1.40
2023-11-01T02:12:34.106Z,1.13
2023-11-01T02:17:36.935Z,0.90
2023-11-01T02:22:39.790Z,1.10
2023-11-01T02:27:42.371Z,1.20
2023-11-01T02:32:49.443Z,1.07
2023-11-01T02:37:52.152Z,1.40
2023-11-01T02:42:57.392Z,0.70
2023-11-01T02:48:01.140Z,0.80
2023-11-01T02:53:03.766Z,0.80
2023-11-01T02:58:06.342Z,0.70
2023-11-01T03:03:09.797Z,1.20
2023-11-01T03:08:15.571Z,0.90
2023-11-01T03:13:18.152Z,0.87
2023-11-01T03:18:20.726Z,1.00
2023-11-01T03:23:23.267Z,1.50
2023-11-01T03:28:25.829Z,1.30
2023-11-01T03:33:28.723Z,1.20
2023-11-01T03:38:32.048Z,1.00
2023-11-01T03:43:35.212Z,0.90
2023-11-01T03:48:37.802Z,0.80
2023-11-01T03:53:40.564Z,1.00
2023-11-01T03:58:43.144Z,1.23
2023-11-01T04:03:47.336Z,6.70
2023-11-01T04:08:50.169Z,5.00
2023-11-01T04:13:52.752Z,5.83
2023-11-01T04:18:55.258Z,5.60
2023-11-01T04:23:57.841Z,9.00
2023-11-01T04:29:00.361Z,9.77
2023-11-01T04:34:03.018Z,2.97
2023-11-01T04:39:05.885Z,3.47
2023-11-01T04:44:08.766Z,3.73
2023-11-01T04:49:11.483Z,3.73
2023-11-01T04:54:13.973Z,4.00
2023-11-01T04:59:17.454Z,5.33
2023-11-01T05:04:22.695Z,4.53
2023-11-01T05:09:26.583Z,3.50
2023-11-01T05:14:29.115Z,3.53
2023-11-01T05:19:31.632Z,5.10
2023-11-01T05:24:34.207Z,4.07
2023-11-01T05:29:36.798Z,2.40
2023-11-01T05:34:39.851Z,2.40
2023-11-01T05:39:42.528Z,2.67
2023-11-01T05:44:46.049Z,4.40
2023-11-01T05:49:48.748Z,3.67
2023-11-01T05:54:51.208Z,2.33
2023-11-01T05:59:54.801Z,2.50
2023-11-01T06:04:57.337Z,2.63
2023-11-01T06:09:59.912Z,2.73
2023-11-01T06:15:02.621Z,3.37
2023-11-01T06:20:07.368Z,2.27
2023-11-01T06:25:11.014Z,1.43
2023-11-01T06:30:14.944Z,3.80
2023-11-01T06:35:17.594Z,4.93
2023-11-01T06:40:20.387Z,7.30
2023-11-01T06:45:24.078Z,3.70
2023-11-01T06:50:26.626Z,2.40
2023-11-01T06:55:29.231Z,2.30
2023-11-01T07:00:35.334Z,2.90
2023-11-01T07:05:38.037Z,6.27
2023-11-01T07:10:41.364Z,12.30
2023-11-01T07:15:43.934Z,7.77
2023-11-01T07:20:46.545Z,9.53
2023-11-01T07:25:49.070Z,6.37
2023-11-01T07:30:51.591Z,6.53
2023-11-01T07:35:54.177Z,5.97
2023-11-01T07:40:57.351Z,24.43
2023-11-01T07:45:59.916Z,5.57
2023-11-01T07:51:09.200Z,3.40
2023-11-01T07:56:11.972Z,4.83
2023-11-01T08:01:15.060Z,10.10
2023-11-01T08:06:17.605Z,6.17
2023-11-01T08:11:20.376Z,16.27
2023-11-01T08:16:23.022Z,10.20
2023-11-01T08:21:25.613Z,5.93
2023-11-01T08:26:30.069Z,4.17
2023-11-01T08:31:32.797Z,10.57
2023-11-01T08:36:35.420Z,4.40
2023-11-01T08:41:38.097Z,6.00
2023-11-01T08:46:40.673Z,9.40
2023-11-01T08:51:43.240Z,5.63
2023-11-01T08:56:45.834Z,5.57
2023-11-01T09:01:48.453Z,10.20
2023-11-01T09:06:51.202Z,8.40
2023-11-01T09:11:53.765Z,5.33
2023-11-01T09:16:56.680Z,7.60
2023-11-01T09:21:59.283Z,10.60
2023-11-01T09:27:02.503Z,7.40
2023-11-01T09:32:05.745Z,3.17
2023-11-01T09:37:09.060Z,7.00
2023-11-01T09:42:22.104Z,3.83
2023-11-01T09:47:28.685Z,6.23
2023-11-01T09:52:34.573Z,3.30
2023-11-01T09:57:39.942Z,4.33
2023-11-01T10:02:42.632Z,6.20
2023-11-01T10:07:45.980Z,2.80
2023-11-01T10:12:48.604Z,5.53
2023-11-01T10:17:53.236Z,4.37
2023-11-01T10:22:57.224Z,4.23
2023-11-01T10:27:59.948Z,3.70
2023-11-01T10:33:02.684Z,4.03
2023-11-01T10:38:05.381Z,4.20
2023-11-01T10:43:12.794Z,3.90
2023-11-01T10:48:16.765Z,3.40
2023-11-01T10:53:23.836Z,4.90
2023-11-01T10:58:28.996Z,6.40
2023-11-01T11:03:49.173Z,7.37
2023-11-01T11:09:19.973Z,4.87
2023-11-01T11:14:48.103Z,3.87
2023-11-01T11:20:18.164Z,7.67
2023-11-01T11:25:39.205Z,6.77
2023-11-01T11:31:03.625Z,4.23
2023-11-01T11:36:15.388Z,12.03
2023-11-01T11:41:24.143Z,3.70
2023-11-01T11:46:48.474Z,6.43
2023-11-01T11:51:55.591Z,8.00
2023-11-01T11:57:00.444Z,7.30
2023-11-01T12:02:07.865Z,4.97
2023-11-01T12:07:20.052Z,5.33
2023-11-01T12:12:25.556Z,6.37
2023-11-01T12:17:29.021Z,8.27
2023-11-01T12:22:36.114Z,5.80
2023-11-01T12:27:39.962Z,5.70
2023-11-01T12:32:43.526Z,5.17
2023-11-01T12:37:47.055Z,5.13
2023-11-01T12:42:51.654Z,7.23
2023-11-01T12:47:55.136Z,6.50
2023-11-01T12:52:58.148Z,6.17
2023-11-01T12:58:01.043Z,7.07
2023-11-01T13:03:04.284Z,6.50
2023-11-01T13:08:07.155Z,7.20
2023-11-01T13:13:09.784Z,8.17
2023-11-01T13:18:12.351Z,7.40
2023-11-01T13:23:14.865Z,9.13
2023-11-01T13:28:17.371Z,12.50
2023-11-01T13:33:19.947Z,10.63
2023-11-01T13:38:22.623Z,9.90
2023-11-01T13:43:25.344Z,8.10
2023-11-01T13:48:28.249Z,11.57
2023-11-01T13:53:31.540Z,14.60
2023-11-01T13:58:36.987Z,27.00
2023-11-01T14:03:39.573Z,19.17
2023-11-01T14:08:42.340Z,46.73
2023-11-01T14:13:45.234Z,15.10
2023-11-01T14:18:47.712Z,28.37
2023-11-01T14:23:50.367Z,23.33
2023-11-01T14:28:52.910Z,9.23
2023-11-01T14:33:55.722Z,7.23
2023-11-01T14:38:58.648Z,10.23
2023-11-01T14:44:01.783Z,11.00
2023-11-01T14:49:04.521Z,9.47
2023-11-01T14:54:07.126Z,9.37
2023-11-01T14:59:09.598Z,14.47
2023-11-01T15:04:12.115Z,18.10
2023-11-01T15:09:15.946Z,20.13
2023-11-01T15:14:18.720Z,21.93
2023-11-01T15:19:21.346Z,21.73
2023-11-01T15:24:25.941Z,22.53
2023-11-01T15:29:28.574Z,24.03
2023-11-01T15:34:31.570Z,25.57
2023-11-01T15:39:34.132Z,27.33
2023-11-01T15:44:36.803Z,32.60
2023-11-01T15:49:39.389Z,35.17
2023-11-01T15:54:42.819Z,37.97
2023-11-01T15:59:45.477Z,54.07
2023-11-01T16:04:48.197Z,51.53
2023-11-01T16:09:50.757Z,45.37
2023-11-01T16:14:53.309Z,53.67
2023-11-01T16:19:57.268Z,51.60
2023-11-01T16:25:00.970Z,45.90
2023-11-01T16:30:03.813Z,39.53
2023-11-01T16:35:07.356Z,33.50
2023-11-01T16:40:10.250Z,31.27
2023-11-01T16:45:13.090Z,31.23
2023-11-01T16:50:15.804Z,35.70
2023-11-01T16:55:18.350Z,37.37
2023-11-01T17:00:20.918Z,36.63
2023-11-01T17:05:23.428Z,36.40
2023-11-01T17:10:25.844Z,36.27
2023-11-01T17:15:28.771Z,34.63
2023-11-01T17:20:31.824Z,37.80
2023-11-01T17:25:43.820Z,43.47
2023-11-01T17:30:46.552Z,50.10
2023-11-01T17:35:49.028Z,62.90
2023-11-01T17:40:54.465Z,55.13
2023-11-01T17:45:56.963Z,50.87
2023-11-01T17:50:59.857Z,44.70
2023-11-01T17:56:02.364Z,43.57
2023-11-01T18:01:05.616Z,43.60
2023-11-01T18:06:10.341Z,41.50
2023-11-01T18:11:17.238Z,37.97
2023-11-01T18:16:26.439Z,40.43
2023-11-01T18:21:40.312Z,39.70
2023-11-01T18:26:43.380Z,37.43
2023-11-01T18:31:45.972Z,36.40
2023-11-01T18:36:49.247Z,38.23
2023-11-01T18:41:52.202Z,37.37
2023-11-01T18:46:57.087Z,41.83
2023-11-01T18:52:01.404Z,47.53
2023-11-01T18:57:26.121Z,54.97
2023-11-01T19:02:35.519Z,58.13
2023-11-01T19:07:41.066Z,89.60
2023-11-01T19:12:44.017Z,89.63
2023-11-01T19:17:47.286Z,89.40
2023-11-01T19:22:49.870Z,81.63
2023-11-01T19:27:52.747Z,72.73
2023-11-01T19:32:55.392Z,77.13
2023-11-01T19:37:57.996Z,74.77
2023-11-01T19:43:02.972Z,60.17
2023-11-01T19:48:06.383Z,63.43
2023-11-01T19:53:09.554Z,61.27
2023-11-01T19:58:12.256Z,65.50
2023-11-01T20:03:14.915Z,65.77
2023-11-01T20:08:17.618Z,76.47
2023-11-01T20:13:20.265Z,71.40
2023-11-01T20:18:23.003Z,79.23
2023-11-01T20:23:26.561Z,69.53
2023-11-01T20:28:29.222Z,66.60
2023-11-01T20:33:31.852Z,73.33
2023-11-01T20:38:36.221Z,82.87
2023-11-01T20:43:38.898Z,81.33
2023-11-01T20:48:42.086Z,158.33
2023-11-01T20:53:44.974Z,95.40
2023-11-01T20:58:47.626Z,91.93
2023-11-01T21:03:50.296Z,93.83
2023-11-01T21:08:55.628Z,181.50
2023-11-01T21:13:58.186Z,74.00
2023-11-01T21:19:00.831Z,60.03
2023-11-01T21:24:03.642Z,63.30
2023-11-01T21:29:06.205Z,64.67
2023-11-01T21:34:10.136Z,62.27
2023-11-01T21:39:12.988Z,54.97
2023-11-01T21:44:35.248Z,50.67
2023-11-01T21:49:37.923Z,47.93
2023-11-01T21:54:40.551Z,43.97
2023-11-01T21:59:43.074Z,51.10
2023-11-01T22:04:51.219Z,51.53
2023-11-01T22:09:57.019Z,53.60
2023-11-01T22:14:59.851Z,50.30
2023-11-01T22:20:04.988Z,46.93
2023-11-01T22:25:10.205Z,50.13
2023-11-01T22:30:15.083Z,52.27
2023-11-01T22:35:38.547Z,51.23
2023-11-01T22:40:43.266Z,51.70
2023-11-01T22:45:45.758Z,45.57
2023-11-01T22:50:48.301Z,45.33
2023-11-01T22:55:51.488Z,41.57
2023-11-01T23:00:54.023Z,39.37
2023-11-01T23:05:56.594Z,36.87
2023-11-01T23:10:59.161Z,31.73
2023-11-01T23:16:02.022Z,26.40
2023-11-01T23:21:04.906Z,25.47
2023-11-01T23:26:13.332Z,26.83
2023-11-01T23:31:18.066Z,25.87
2023-11-01T23:36:28.375Z,24.60
2023-11-01T23:41:43.373Z,23.83
2023-11-01T23:46:46.128Z,25.80
2023-11-01T23:51:58.201Z,25.33
2023-11-01T23:57:01.333Z,23.87
